Terminal Aerodrome Forecast
Issued by NWS

Home | Current Version | Previous Version | Text Only | Print | Product List | Glossary On
Versions: 1 2 3 4 5 6 7 8 9 10 11 12
000
FTUS45 KREV 272300
TAFMMH
TAF
KMMH 272320Z 2800/2824 27015G25KT P6SM SKC
     FM280200 30009KT P6SM SCT180
     FM281500 12007KT P6SM SCT180
     FM282100 24010KT P6SM SCT180=

USA.gov is the U.S. government's official web portal to all federal, state and local government web resources and services.